createdAt,value
2022-09-28T00:01:59.491Z,98702.19
2022-09-28T00:04:26.389Z,98693.34
2022-09-28T00:06:53.080Z,98694.75
2022-09-28T00:09:20.049Z,98696.13
2022-09-28T00:11:46.871Z,98686.06
2022-09-28T00:14:13.824Z,98677.75
2022-09-28T00:16:43.598Z,98673.75
2022-09-28T00:19:12.389Z,98666.78
2022-09-28T00:21:40.873Z,98660.88
2022-09-28T00:24:15.658Z,98660.84
2022-09-28T00:26:48.620Z,98657.56
2022-09-28T00:29:31.578Z,98656.03
2022-09-28T00:32:02.379Z,98647.91
2022-09-28T00:34:32.956Z,98650.66
2022-09-28T00:37:01.034Z,98649.13
2022-09-28T00:39:27.694Z,98647.50
2022-09-28T00:41:54.773Z,98646.16
2022-09-28T00:44:24.179Z,98637.75
2022-09-28T00:46:52.263Z,98635.06
2022-09-28T00:49:22.626Z,98626.22
2022-09-28T00:51:49.222Z,98629.53
2022-09-28T00:54:16.716Z,98624.66
2022-09-28T00:56:47.815Z,98618.44
2022-09-28T00:59:15.067Z,98613.88
2022-09-28T01:04:48.706Z,98605.31
2022-09-28T01:07:18.111Z,98598.84
2022-09-28T01:09:45.987Z,98588.47
2022-09-28T01:12:13.051Z,98578.97
2022-09-28T01:14:41.200Z,98587.03
2022-09-28T01:17:24.502Z,98580.13
2022-09-28T01:20:24.117Z,98565.66
2022-09-28T01:23:18.974Z,98554.53
2022-09-28T01:26:23.801Z,98552.34
2022-09-28T01:28:59.474Z,98553.00
2022-09-28T01:31:31.436Z,98553.66
2022-09-28T01:34:05.181Z,98556.13
2022-09-28T01:36:42.291Z,98556.66
2022-09-28T01:39:13.368Z,98548.56
2022-09-28T01:41:43.832Z,98542.44
2022-09-28T01:44:15.875Z,98542.69
2022-09-28T01:46:46.560Z,98553.72
2022-09-28T01:49:22.821Z,98546.03
2022-09-28T01:52:00.250Z,98540.53
2022-09-28T01:54:29.088Z,98536.78
2022-09-28T01:57:03.063Z,98534.94
2022-09-28T01:59:34.460Z,98528.16
2022-09-28T02:02:12.135Z,98527.09
2022-09-28T02:04:51.775Z,98516.63
2022-09-28T02:07:23.058Z,98514.22
2022-09-28T02:10:22.115Z,98507.78
2022-09-28T02:12:53.884Z,98511.56
2022-09-28T02:15:25.820Z,98512.91
2022-09-28T02:17:52.449Z,98503.44
2022-09-28T02:20:21.597Z,98503.66
2022-09-28T02:22:59.750Z,98502.84
2022-09-28T02:25:30.912Z,98493.41
2022-09-28T02:28:04.225Z,98486.97
2022-09-28T02:30:33.087Z,98479.72
2022-09-28T02:33:05.170Z,98488.81
2022-09-28T02:35:33.876Z,98493.09
2022-09-28T02:38:00.655Z,98481.78
2022-09-28T02:40:33.132Z,98493.09
2022-09-28T02:43:10.236Z,98483.16
2022-09-28T02:46:08.092Z,98498.97
2022-09-28T02:49:22.565Z,98493.03
2022-09-28T02:52:16.731Z,98495.31
2022-09-28T02:55:02.087Z,98499.31
2022-09-28T02:57:45.366Z,98488.34
2022-09-28T03:00:21.109Z,98492.25
2022-09-28T03:03:12.599Z,98487.97
2022-09-28T03:06:01.679Z,98493.00
2022-09-28T03:08:49.459Z,98487.16
2022-09-28T03:11:22.412Z,98486.88
2022-09-28T03:13:51.819Z,98486.72
2022-09-28T03:16:20.828Z,98492.44
2022-09-28T03:18:49.193Z,98497.13
2022-09-28T03:21:18.311Z,98495.41
2022-09-28T03:23:45.347Z,98493.94
2022-09-28T03:26:12.665Z,98496.91
2022-09-28T03:28:39.609Z,98488.56
2022-09-28T03:31:09.527Z,98484.00
2022-09-28T03:33:36.645Z,98483.44
2022-09-28T03:36:03.423Z,98489.59
2022-09-28T03:38:30.889Z,98482.06
2022-09-28T03:41:00.319Z,98478.00
2022-09-28T03:43:31.766Z,98486.16
2022-09-28T03:46:02.347Z,98495.50
2022-09-28T03:48:34.128Z,98490.38
2022-09-28T03:51:04.576Z,98492.34
2022-09-28T03:53:32.642Z,98494.13
2022-09-28T03:56:06.427Z,98491.91
2022-09-28T03:58:33.423Z,98489.66
2022-09-28T04:01:16.454Z,98492.91
2022-09-28T04:03:45.932Z,98486.13
2022-09-28T04:06:12.705Z,98488.44
2022-09-28T04:08:40.008Z,98485.25
2022-09-28T04:11:06.734Z,98485.19
2022-09-28T04:13:33.826Z,98483.75
2022-09-28T04:16:01.727Z,98486.19
2022-09-28T04:18:32.845Z,98487.78
2022-09-28T04:21:20.053Z,98490.81
2022-09-28T04:23:55.203Z,98493.59
2022-09-28T04:26:24.693Z,98492.59
2022-09-28T04:29:10.143Z,98496.22
2022-09-28T04:31:39.793Z,98504.44
2022-09-28T04:34:06.823Z,98508.44
2022-09-28T04:36:33.793Z,98503.44
2022-09-28T04:39:00.430Z,98512.28
2022-09-28T04:41:28.981Z,98505.88
2022-09-28T04:43:56.252Z,98513.50
2022-09-28T04:46:26.079Z,98508.25
2022-09-28T04:49:05.460Z,98510.25
2022-09-28T04:51:43.487Z,98505.06
2022-09-28T04:54:10.087Z,98501.22
2022-09-28T04:56:36.947Z,98508.22
2022-09-28T04:59:04.100Z,98505.28
2022-09-28T05:01:31.215Z,98512.41
2022-09-28T05:04:20.287Z,98528.06
2022-09-28T05:07:03.377Z,98519.06
2022-09-28T05:09:31.593Z,98516.69
2022-09-28T05:11:59.756Z,98520.06
2022-09-28T05:14:26.490Z,98518.63
2022-09-28T05:16:53.860Z,98521.69
2022-09-28T05:19:26.549Z,98523.16
2022-09-28T05:21:58.130Z,98521.16
2022-09-28T05:24:25.178Z,98527.03
2022-09-28T05:26:53.362Z,98526.16
2022-09-28T05:29:20.086Z,98534.25
2022-09-28T05:32:05.807Z,98538.38
2022-09-28T05:34:41.530Z,98539.47
2022-09-28T05:37:12.881Z,98537.41
2022-09-28T05:39:39.522Z,98537.31
2022-09-28T05:42:07.898Z,98541.16
2022-09-28T05:44:34.711Z,98542.47
2022-09-28T05:47:01.898Z,98551.34
2022-09-28T05:49:29.186Z,98548.34
2022-09-28T05:51:56.046Z,98544.63
2022-09-28T05:54:22.720Z,98551.31
2022-09-28T05:56:50.677Z,98546.75
2022-09-28T05:59:17.302Z,98546.53
2022-09-28T06:01:44.033Z,98556.09
2022-09-28T06:04:11.649Z,98553.38
2022-09-28T06:06:42.097Z,98557.03
2022-09-28T06:09:09.128Z,98557.31
2022-09-28T06:12:05.218Z,98573.16
2022-09-28T06:14:40.611Z,98567.31
2022-09-28T06:17:07.282Z,98570.06
2022-09-28T06:19:34.222Z,98572.38
2022-09-28T06:22:19.535Z,98576.03
2022-09-28T06:24:54.897Z,98577.22
2022-09-28T06:27:23.835Z,98572.75
2022-09-28T06:29:50.482Z,98581.47
2022-09-28T06:32:17.095Z,98578.78
2022-09-28T06:34:46.986Z,98588.44
2022-09-28T06:37:13.646Z,98586.56
2022-09-28T06:39:40.284Z,98586.78
2022-09-28T06:42:07.081Z,98593.34
2022-09-28T06:45:02.944Z,98602.19
2022-09-28T06:47:54.177Z,98594.91
2022-09-28T06:50:34.006Z,98605.94
2022-09-28T06:53:19.547Z,98602.22
2022-09-28T06:55:50.387Z,98606.28
2022-09-28T06:58:19.939Z,98613.09
2022-09-28T07:00:48.114Z,98609.16
2022-09-28T07:03:19.903Z,98610.69
2022-09-28T07:06:16.029Z,98619.50
2022-09-28T07:09:25.767Z,98630.28
2022-09-28T07:12:10.723Z,98635.72
2022-09-28T07:14:56.075Z,98627.25
2022-09-28T07:17:24.246Z,98639.56
2022-09-28T07:19:52.779Z,98642.03
2022-09-28T07:22:30.365Z,98645.41
2022-09-28T07:25:06.687Z,98646.22
2022-09-28T07:27:42.632Z,98645.75
2022-09-28T07:30:16.000Z,98653.22
2022-09-28T07:33:06.031Z,98662.41
2022-09-28T07:35:54.029Z,98670.38
2022-09-28T07:38:22.894Z,98663.66
2022-09-28T07:41:08.380Z,98670.28
2022-09-28T07:43:35.959Z,98670.81
2022-09-28T07:46:03.766Z,98674.28
2022-09-28T07:48:36.563Z,98689.63
2022-09-28T07:51:21.248Z,98682.66
2022-09-28T07:54:17.849Z,98684.97
2022-09-28T07:56:57.540Z,98689.94
2022-09-28T07:59:47.801Z,98690.97
2022-09-28T08:02:35.045Z,98700.84
2022-09-28T08:05:02.640Z,98694.34
2022-09-28T08:07:30.245Z,98708.81
2022-09-28T08:10:04.714Z,98709.13
2022-09-28T08:13:06.541Z,98701.94
2022-09-28T08:15:36.880Z,98699.56
2022-09-28T08:18:11.564Z,98707.63
2022-09-28T08:20:57.077Z,98711.72
2022-09-28T08:23:23.933Z,98712.50
2022-09-28T08:25:55.070Z,98719.28
2022-09-28T08:28:24.178Z,98713.84
2022-09-28T08:30:54.470Z,98717.31
2022-09-28T08:33:41.176Z,98733.94
2022-09-28T08:36:26.529Z,98727.16
2022-09-28T08:39:02.355Z,98725.75
2022-09-28T08:41:52.788Z,98732.53
2022-09-28T08:48:33.374Z,98736.00
2022-09-28T08:51:21.902Z,98740.34
2022-09-28T08:54:12.193Z,98743.91
2022-09-28T08:56:59.575Z,98739.66
2022-09-28T08:59:38.563Z,98736.72
2022-09-28T09:02:17.144Z,98738.94
2022-09-28T09:04:44.272Z,98732.34
2022-09-28T09:07:42.977Z,98744.66
2022-09-28T09:10:30.428Z,98738.19
2022-09-28T09:13:05.612Z,98737.84
2022-09-28T09:15:38.567Z,98752.69
2022-09-28T09:18:49.609Z,98743.72
2022-09-28T09:21:50.243Z,98750.59
2022-09-28T09:24:48.373Z,98752.91
2022-09-28T09:27:34.167Z,98747.69
2022-09-28T09:30:06.583Z,98749.00
2022-09-28T09:32:57.950Z,98754.44
2022-09-28T09:36:02.677Z,98752.47
2022-09-28T09:39:33.117Z,98756.09
2022-09-28T09:42:47.400Z,98753.88
2022-09-28T09:46:01.164Z,98761.69
2022-09-28T09:48:41.893Z,98756.69
2022-09-28T09:51:47.228Z,98762.97
2022-09-28T09:54:24.657Z,98759.25
2022-09-28T09:57:18.141Z,98762.97
2022-09-28T09:59:51.096Z,98765.00
2022-09-28T10:02:29.159Z,98763.09
2022-09-28T10:05:28.506Z,98765.41
2022-09-28T10:07:58.406Z,98761.66
2022-09-28T10:10:45.559Z,98766.16
2022-09-28T10:13:13.940Z,98760.47
2022-09-28T10:15:42.525Z,98770.81
2022-09-28T10:18:20.158Z,98772.41
2022-09-28T10:21:05.777Z,98768.59
2022-09-28T10:23:54.604Z,98774.00
2022-09-28T10:26:27.367Z,98772.19
2022-09-28T10:29:01.762Z,98770.78
2022-09-28T10:31:39.461Z,98766.78
2022-09-28T10:34:17.167Z,98769.25
2022-09-28T10:37:03.246Z,98769.88
2022-09-28T10:39:55.314Z,98772.03
2022-09-28T10:42:30.418Z,98781.56
2022-09-28T10:45:04.544Z,98775.06
2022-09-28T10:47:36.549Z,98779.50
2022-09-28T10:50:27.278Z,98777.59
2022-09-28T10:53:17.739Z,98773.44
2022-09-28T10:56:19.802Z,98780.00
2022-09-28T10:58:48.732Z,98771.75
2022-09-28T11:01:30.949Z,98774.81
2022-09-28T11:04:00.610Z,98772.19
2022-09-28T11:06:31.351Z,98764.75
2022-09-28T11:09:01.779Z,98763.66
2022-09-28T11:11:29.867Z,98765.53
2022-09-28T11:14:04.353Z,98768.28
2022-09-28T11:16:36.409Z,98768.47
2022-09-28T11:19:26.049Z,98763.63
2022-09-28T11:21:54.190Z,98764.28
2022-09-28T11:24:27.126Z,98766.47
2022-09-28T11:27:00.062Z,98766.88
2022-09-28T11:29:43.430Z,98766.25
2022-09-28T11:32:42.966Z,98761.44
2022-09-28T11:35:38.388Z,98768.16
2022-09-28T11:38:23.445Z,98766.88
2022-09-28T11:41:23.134Z,98770.81
2022-09-28T11:44:22.768Z,98767.97
2022-09-28T11:47:19.601Z,98775.28
2022-09-28T11:49:57.415Z,98765.25
2022-09-28T11:52:45.772Z,98769.66
2022-09-28T11:55:33.674Z,98771.41
2022-09-28T11:58:20.339Z,98768.22
2022-09-28T12:00:54.400Z,98767.28
2022-09-28T12:03:40.845Z,98771.16
2022-09-28T12:06:19.484Z,98770.78
2022-09-28T12:08:53.678Z,98765.81
2022-09-28T12:11:58.685Z,98760.06
2022-09-28T12:14:46.000Z,98760.78
2022-09-28T12:17:28.606Z,98760.06
2022-09-28T12:20:09.764Z,98766.22
2022-09-28T12:22:45.871Z,98764.00
2022-09-28T12:25:20.607Z,98752.19
2022-09-28T12:27:55.943Z,98769.91
2022-09-28T12:30:25.608Z,98768.69
2022-09-28T12:32:58.957Z,98765.81
2022-09-28T12:35:31.509Z,98767.50
2022-09-28T12:38:24.899Z,98759.78
2022-09-28T12:41:01.376Z,98759.72
2022-09-28T12:43:40.535Z,98764.88
2022-09-28T12:46:34.806Z,98763.25
2022-09-28T12:52:32.569Z,98766.84
2022-09-28T12:55:23.985Z,98771.16
2022-09-28T12:58:12.891Z,98766.38
2022-09-28T13:00:54.379Z,98767.34
2022-09-28T13:03:31.048Z,98763.53
2022-09-28T13:06:18.260Z,98770.59
2022-09-28T13:09:03.341Z,98768.31
2022-09-28T13:11:54.445Z,98767.16
2022-09-28T13:14:36.149Z,98763.00
2022-09-28T13:17:30.353Z,98758.63
2022-09-28T13:20:03.984Z,98768.22
2022-09-28T13:22:45.425Z,98767.53
2022-09-28T13:25:17.604Z,98771.84
2022-09-28T13:28:05.475Z,98765.91
2022-09-28T13:30:35.430Z,98764.75
2022-09-28T13:33:05.770Z,98762.81
2022-09-28T13:35:33.256Z,98768.16
2022-09-28T13:38:15.170Z,98762.09
2022-09-28T13:41:03.569Z,98758.75
2022-09-28T13:43:55.752Z,98761.28
2022-09-28T13:46:44.218Z,98764.91
2022-09-28T13:49:39.454Z,98756.88
2022-09-28T13:52:12.413Z,98764.66
2022-09-28T13:54:54.180Z,98759.78
2022-09-28T13:57:41.868Z,98759.47
2022-09-28T14:00:11.917Z,98771.50
2022-09-28T14:02:52.923Z,98770.16
2022-09-28T14:05:22.611Z,98765.53
2022-09-28T14:07:59.039Z,98764.94
2022-09-28T14:11:24.665Z,98768.84
2022-09-28T14:14:00.225Z,98771.63
2022-09-28T14:16:32.407Z,98766.31
2022-09-28T14:19:05.000Z,98773.31
2022-09-28T14:21:31.716Z,98776.41
2022-09-28T14:24:34.446Z,98775.16
2022-09-28T14:27:19.848Z,98774.81
2022-09-28T14:29:50.678Z,98770.75
2022-09-28T14:32:20.222Z,98777.53
2022-09-28T14:34:54.732Z,98770.38
2022-09-28T14:37:59.671Z,98781.91
2022-09-28T14:41:11.208Z,98777.97
2022-09-28T14:43:44.037Z,98778.72
2022-09-28T14:46:23.174Z,98791.72
2022-09-28T14:48:55.129Z,98783.56
2022-09-28T14:51:24.696Z,98786.97
2022-09-28T14:53:52.978Z,98784.78
2022-09-28T14:56:20.405Z,98791.88
2022-09-28T14:58:53.374Z,98790.75
2022-09-28T15:01:22.444Z,98788.38
2022-09-28T15:03:54.232Z,98791.13
2022-09-28T15:06:25.357Z,98791.88
2022-09-28T15:08:52.026Z,98794.25
2022-09-28T15:11:25.215Z,98796.22
2022-09-28T15:14:06.314Z,98792.66
2022-09-28T15:16:33.813Z,98791.38
2022-09-28T15:19:22.759Z,98795.59
2022-09-28T15:21:51.034Z,98796.25
2022-09-28T15:24:31.646Z,98796.22
2022-09-28T15:27:03.864Z,98798.63
2022-09-28T15:29:33.372Z,98807.34
2022-09-28T15:32:00.485Z,98803.28
2022-09-28T15:34:47.353Z,98799.44
2022-09-28T15:37:17.050Z,98796.78
2022-09-28T15:39:48.247Z,98801.31
2022-09-28T15:42:17.001Z,98801.75
2022-09-28T15:45:01.159Z,98803.28
2022-09-28T15:47:31.948Z,98804.47
2022-09-28T15:50:02.995Z,98793.53
2022-09-28T15:52:44.954Z,98802.06
2022-09-28T15:55:24.213Z,98797.84
2022-09-28T15:58:03.881Z,98800.34
2022-09-28T16:00:31.442Z,98804.09
2022-09-28T16:03:20.694Z,98805.19
2022-09-28T16:05:59.338Z,98805.41
2022-09-28T16:08:48.877Z,98797.56
2022-09-28T16:11:21.543Z,98806.34
2022-09-28T16:13:48.090Z,98806.03
2022-09-28T16:16:16.802Z,98804.97
2022-09-28T16:18:48.630Z,98798.63
2022-09-28T16:21:33.810Z,98807.53
2022-09-28T16:24:00.697Z,98801.13
2022-09-28T16:26:38.884Z,98809.84
2022-09-28T16:29:28.160Z,98810.78
2022-09-28T16:31:55.592Z,98811.53
2022-09-28T16:34:26.987Z,98812.72
2022-09-28T16:36:53.892Z,98812.03
2022-09-28T16:39:21.014Z,98816.28
2022-09-28T16:41:55.575Z,98815.78
2022-09-28T16:44:28.678Z,98819.16
2022-09-28T16:46:58.417Z,98821.47
2022-09-28T16:49:28.491Z,98811.53
2022-09-28T16:51:55.151Z,98825.84
2022-09-28T16:54:42.733Z,98823.94
2022-09-28T16:57:15.422Z,98830.25
2022-09-28T16:59:42.411Z,98825.66
2022-09-28T17:02:35.468Z,98830.84
2022-09-28T17:05:04.249Z,98831.06
2022-09-28T17:07:33.471Z,98828.06
2022-09-28T17:10:00.999Z,98828.97
2022-09-28T17:12:28.927Z,98837.88
2022-09-28T17:14:55.986Z,98832.44
2022-09-28T17:17:23.237Z,98844.47
2022-09-28T17:19:50.380Z,98844.69
2022-09-28T17:22:18.363Z,98846.47
2022-09-28T17:24:46.154Z,98847.88
2022-09-28T17:27:19.206Z,98840.78
2022-09-28T17:29:46.542Z,98855.56
2022-09-28T17:32:18.739Z,98858.47
2022-09-28T17:34:55.906Z,98870.78
2022-09-28T17:37:36.069Z,98881.69
2022-09-28T17:40:15.034Z,98882.50
2022-09-28T17:42:42.194Z,98885.28
2022-09-28T17:45:09.080Z,98893.47
2022-09-28T17:47:35.953Z,98891.25
2022-09-28T17:50:02.585Z,98883.25
2022-09-28T17:52:30.376Z,98887.84
2022-09-28T17:54:56.991Z,98892.94
2022-09-28T17:57:23.693Z,98887.16
2022-09-28T17:59:51.031Z,98878.66
2022-09-28T18:02:17.812Z,98882.81
2022-09-28T18:04:51.713Z,98878.06
2022-09-28T18:07:18.705Z,98885.72
2022-09-28T18:09:45.704Z,98878.53
2022-09-28T18:12:12.399Z,98884.16
2022-09-28T18:14:40.035Z,98886.13
2022-09-28T18:17:06.678Z,98884.75
2022-09-28T18:19:33.274Z,98884.31
2022-09-28T18:22:01.150Z,98885.84
2022-09-28T18:24:27.752Z,98892.19
2022-09-28T18:26:54.340Z,98887.00
2022-09-28T18:29:20.896Z,98887.59
2022-09-28T18:31:48.703Z,98887.34
2022-09-28T18:34:15.532Z,98897.28
2022-09-28T18:36:42.200Z,98893.28
2022-09-28T18:39:09.078Z,98898.81
2022-09-28T18:41:36.330Z,98890.56
2022-09-28T18:44:03.116Z,98891.53
2022-09-28T18:46:31.269Z,98897.72
2022-09-28T18:48:57.961Z,98901.97
2022-09-28T18:51:24.780Z,98908.38
2022-09-28T18:53:51.516Z,98906.81
2022-09-28T18:56:19.627Z,98905.44
2022-09-28T18:58:47.692Z,98911.06
2022-09-28T19:01:29.935Z,98913.84
2022-09-28T19:04:06.024Z,98911.94
2022-09-28T19:06:34.300Z,98908.78
2022-09-28T19:09:03.161Z,98914.19
2022-09-28T19:11:29.888Z,98912.22
2022-09-28T19:13:56.797Z,98922.28
2022-09-28T19:16:26.713Z,98919.38
2022-09-28T19:18:53.799Z,98920.53
2022-09-28T19:21:20.965Z,98919.28
2022-09-28T19:23:49.715Z,98922.78
2022-09-28T19:26:26.099Z,98927.53
2022-09-28T19:28:53.692Z,98922.06
2022-09-28T19:31:23.076Z,98926.09
2022-09-28T19:33:50.358Z,98926.13
2022-09-28T19:36:21.136Z,98931.34
2022-09-28T19:38:47.962Z,98932.78
2022-09-28T19:41:43.103Z,98942.16
2022-09-28T19:44:24.223Z,98943.91
2022-09-28T19:47:11.599Z,98940.13
2022-09-28T19:49:40.083Z,98943.84
2022-09-28T19:52:15.584Z,98945.50
2022-09-28T19:54:57.241Z,98948.50
2022-09-28T19:57:29.640Z,98957.31
2022-09-28T20:00:01.832Z,98954.50
2022-09-28T20:02:33.746Z,98968.38
2022-09-28T20:05:00.745Z,98958.78
2022-09-28T20:07:27.383Z,98969.75
2022-09-28T20:09:53.999Z,98969.53
2022-09-28T20:12:20.774Z,98970.44
2022-09-28T20:14:47.537Z,98973.03
2022-09-28T20:17:14.259Z,98973.34
2022-09-28T20:19:40.978Z,98974.50
2022-09-28T20:22:07.588Z,98977.50
2022-09-28T20:24:34.358Z,98983.44
2022-09-28T20:27:01.370Z,98975.19
2022-09-28T20:29:28.738Z,98979.22
2022-09-28T20:31:55.642Z,98981.09
2022-09-28T20:34:22.301Z,98978.44
2022-09-28T20:36:49.041Z,98976.38
2022-09-28T20:39:16.004Z,98985.25
2022-09-28T20:41:42.592Z,98981.25
2022-09-28T20:44:09.770Z,98980.50
2022-09-28T20:46:37.361Z,98991.16
2022-09-28T20:49:04.932Z,98994.44
2022-09-28T20:51:32.022Z,98997.53
2022-09-28T20:53:59.668Z,98991.97
2022-09-28T20:56:34.548Z,98989.06
2022-09-28T20:59:01.309Z,98985.59
2022-09-28T21:01:30.458Z,98984.44
2022-09-28T21:03:59.405Z,98992.00
2022-09-28T21:06:31.740Z,98986.41
2022-09-28T21:09:00.770Z,98985.66
2022-09-28T21:11:29.626Z,98987.06
2022-09-28T21:13:58.911Z,98986.38
2022-09-28T21:16:27.455Z,98991.19
2022-09-28T21:18:54.233Z,99001.81
2022-09-28T21:21:22.410Z,98991.19
2022-09-28T21:23:52.690Z,98984.28
2022-09-28T21:26:24.942Z,98987.56
2022-09-28T21:29:04.142Z,98984.88
2022-09-28T21:31:36.785Z,98984.09
2022-09-28T21:34:04.661Z,98990.88
2022-09-28T21:36:32.116Z,98982.97
2022-09-28T21:38:58.797Z,98979.66
2022-09-28T21:41:25.890Z,98981.41
2022-09-28T21:43:52.699Z,98969.69
2022-09-28T21:46:19.678Z,98972.44
2022-09-28T21:48:46.342Z,98977.63
2022-09-28T21:51:14.629Z,98969.56
2022-09-28T21:53:41.257Z,98981.22
2022-09-28T21:56:10.651Z,98977.66
2022-09-28T21:58:37.845Z,98984.19
2022-09-28T22:01:15.440Z,98983.75
2022-09-28T22:03:43.933Z,98985.56
2022-09-28T22:06:11.165Z,98988.94
2022-09-28T22:08:39.234Z,98989.81
2022-09-28T22:11:09.345Z,98983.56
2022-09-28T22:13:43.274Z,98985.38
2022-09-28T22:16:12.133Z,98984.97
2022-09-28T22:18:39.305Z,98990.22
2022-09-28T22:21:11.653Z,98991.72
2022-09-28T22:23:39.581Z,98992.03
2022-09-28T22:26:13.781Z,98985.78
2022-09-28T22:28:49.499Z,98994.50
2022-09-28T22:31:18.076Z,98989.56
2022-09-28T22:33:44.738Z,98980.63
2022-09-28T22:36:11.867Z,98976.63
2022-09-28T22:38:39.325Z,98985.94
2022-09-28T22:41:06.220Z,98978.91
2022-09-28T22:43:33.124Z,98981.63
2022-09-28T22:46:11.000Z,98979.28
2022-09-28T22:48:38.409Z,98986.56
2022-09-28T22:51:07.036Z,98986.69
2022-09-28T22:53:35.092Z,98989.56
2022-09-28T22:56:05.507Z,98993.91
2022-09-28T22:58:33.746Z,98985.81
2022-09-28T23:01:19.134Z,98985.47
2022-09-28T23:03:46.282Z,98984.59
2022-09-28T23:06:16.460Z,98984.69
2022-09-28T23:08:44.716Z,98991.81
2022-09-28T23:11:11.781Z,98985.13
2022-09-28T23:13:38.477Z,98983.44
2022-09-28T23:16:11.867Z,98987.97
2022-09-28T23:18:43.512Z,98990.66
2022-09-28T23:21:15.608Z,98986.53
2022-09-28T23:23:43.101Z,98987.34
2022-09-28T23:26:17.526Z,98986.25
2022-09-28T23:28:44.985Z,98974.78
2022-09-28T23:31:15.297Z,98984.97
2022-09-28T23:33:42.122Z,98984.19
2022-09-28T23:36:09.418Z,98984.31
2022-09-28T23:38:36.280Z,98982.47
2022-09-28T23:41:02.956Z,98986.97
2022-09-28T23:43:29.726Z,98976.38
2022-09-28T23:45:56.302Z,98979.66
2022-09-28T23:48:23.028Z,98982.34
2022-09-28T23:50:49.636Z,98984.81
2022-09-28T23:53:16.336Z,98981.28
2022-09-28T23:55:43.433Z,98984.41
2022-09-28T23:58:11.669Z,98992.22
